MSC Jordan — HPMK — position and weather

sailwx.info

Track history (hours):
 
Tides and Currents Weather Stations Pressure Air Temp Water Temp Dewpoint Dewpoint Depression Visibility Wind Speed Wind Dir Waves Ship Positions

MSC Jordan

Last reported at 2015-Apr-30 23:12 UTC. Time now 2015-May-22 23:42 UTC.
Position N 28°08' W 015°25'.
Warning: this ship's position is 22 days out of date.

Length 237 m; draft 10.6 m.

Type: Ship. MMSI: 355194000.

Date/timePositionNaut miles runAvg speedWind from/ knotsBaromVisibWave heightAir tempDewpointWater temp
2015-Apr-30 23:12N 28°08' W 015°25'0 0.0
2015-Apr-30 19:27N 28°08' W 015°25'  
2015-Apr-26 07:24N 49°44' W 000°57'1517.9
2015-Apr-26 06:33N 49°38' W 000°35'1717.1
2015-Apr-26 05:33N 49°32' W 000°10'1313.1
2015-Apr-26 04:33N 49°27' E 000°09'0 0.3
2015-Apr-26 03:33N 49°28' E 000°09'0 0.0
2015-Apr-26 02:33N 49°28' E 000°09'0 0.0
2015-Apr-26 01:33N 49°28' E 000°09'0 0.0
2015-Apr-26 00:33N 49°28' E 000°09'0 0.0
2015-Apr-25 23:33N 49°28' E 000°09'0 0.0
2015-Apr-25 22:33N 49°28' E 000°09'0 0.0
2015-Apr-25 21:33N 49°28' E 000°09'0 0.0
2015-Apr-25 20:33N 49°28' E 000°09'0 0.0
2015-Apr-25 19:33N 49°28' E 000°09'0 0.0
2015-Apr-25 18:33N 49°28' E 000°09'0 0.0
2015-Apr-25 17:33N 49°28' E 000°09'0 0.0
2015-Apr-25 16:33N 49°28' E 000°09'0 0.0
2015-Apr-25 15:33N 49°28' E 000°09'3 3.2
2015-Apr-25 14:34N 49°29' E 000°04'1010.2
2015-Apr-25 13:33N 49°33' W 000°11'1616.0
2015-Apr-25 12:33N 49°49' W 000°10'4614.6
2015-Apr-25 09:24N 50°32' E 000°16'1517.1
2015-Apr-25 08:33N 50°36' E 000°38'1717.0
2015-Apr-25 07:33N 50°46' E 000°60'1816.0
2015-Apr-25 06:25N 50°58' E 001°22'1314.6
2015-Apr-25 05:33N 51°07' E 001°36'1414.2
2015-Apr-25 04:34N 51°19' E 001°49'1514.6
2015-Apr-25 03:34N 51°33' E 001°47'1716.8
2015-Apr-25 02:34N 51°50' E 001°42'1211.9
2015-Apr-25 01:33N 51°56' E 001°26'5 5.0
2015-Apr-25 00:33N 51°57' E 001°18'0 0.0
2015-Apr-24 23:33N 51°57' E 001°18'0 0.0
2015-Apr-24 22:33N 51°57' E 001°18'0 0.0
2015-Apr-24 21:33N 51°57' E 001°18'0 0.0
2015-Apr-24 20:32N 51°57' E 001°18'0 0.0
2015-Apr-24 19:32N 51°57' E 001°18'0 0.0
2015-Apr-24 18:30N 51°57' E 001°18'0 0.0
2015-Apr-24 17:33N 51°57' E 001°18'0 0.0
2015-Apr-24 16:33N 51°57' E 001°18'0 0.0
2015-Apr-24 15:34N 51°57' E 001°18'0 0.0
2015-Apr-24 14:33N 51°57' E 001°18'0 0.0
2015-Apr-24 13:31N 51°57' E 001°18'0 0.0
2015-Apr-24 12:31N 51°57' E 001°18'0 0.0
2015-Apr-24 11:31N 51°57' E 001°18'0 0.0
2015-Apr-24 10:31N 51°57' E 001°18'0 0.0
2015-Apr-24 09:31N 51°57' E 001°18'0 0.0
2015-Apr-24 08:31N 51°57' E 001°18'0 0.0
2015-Apr-24 06:31N 51°57' E 001°18'0 0.1
2015-Apr-24 05:33N 51°57' E 001°18'7 7.2
2015-Apr-24 04:34N 51°57' E 001°30'9 9.2
2015-Apr-24 03:33N 51°51' E 001°43'4 3.7
2015-Apr-24 02:33N 51°51' E 001°48'5 4.7
2015-Apr-24 01:33N 51°47' E 001°49'1514.9
2015-Apr-24 00:33N 51°32' E 001°51'1615.8
2015-Apr-23 23:34N 51°22' E 002°11'1717.1
2015-Apr-23 22:33N 51°23' E 002°38'1414.4
2015-Apr-23 21:33N 51°25' E 003°01'1817.9
2015-Apr-23 20:34N 51°25' E 003°29'1211.5
2015-Apr-23 19:33N 51°21' E 003°47'1110.8
2015-Apr-23 18:34N 51°22' E 004°04'8 8.5
2015-Apr-23 17:34N 51°21' E 004°17'1 1.5
2015-Apr-23 16:33N 51°19' E 004°19'1 1.1
2015-Apr-23 15:32N 51°20' E 004°21'0 0.0
2015-Apr-23 14:33N 51°20' E 004°21'0 0.0
2015-Apr-23 13:30N 51°20' E 004°21'0 0.0
2015-Apr-23 12:33N 51°20' E 004°21'0 0.0
2015-Apr-23 11:32N 51°20' E 004°21'0 0.0
2015-Apr-23 10:33N 51°20' E 004°21'0 0.0
2015-Apr-23 09:30N 51°20' E 004°21'0 0.0
2015-Apr-23 08:33N 51°20' E 004°21'0 0.0
2015-Apr-23 07:33N 51°20' E 004°21'0 0.0
2015-Apr-23 06:33N 51°20' E 004°21'0 0.0
2015-Apr-23 05:30N 51°20' E 004°21'0 0.0
2015-Apr-23 04:27N 51°20' E 004°21'0 0.0
2015-Apr-23 03:33N 51°20' E 004°21'0 0.0
2015-Apr-23 02:33N 51°20' E 004°21'0 0.0
2015-Apr-23 01:33N 51°20' E 004°21'0 0.0
2015-Apr-23 00:33N 51°20' E 004°21'0 0.0
2015-Apr-22 23:33N 51°20' E 004°21'0 0.0
2015-Apr-22 22:33N 51°20' E 004°21'0 0.0
2015-Apr-22 21:30N 51°20' E 004°21'0 0.0
2015-Apr-22 20:33N 51°20' E 004°21'0 0.0
2015-Apr-22 19:33N 51°20' E 004°21'0 0.0
2015-Apr-22 18:32N 51°20' E 004°21'0 0.0
2015-Apr-22 17:31N 51°20' E 004°21'0 0.0
2015-Apr-22 16:32N 51°20' E 004°21'0 0.0
2015-Apr-22 15:33N 51°20' E 004°21'0 0.0
2015-Apr-22 14:25N 51°20' E 004°21'0 0.0
2015-Apr-22 13:31N 51°20' E 004°21'0 0.0
2015-Apr-22 12:28N 51°20' E 004°21'0 0.0
2015-Apr-22 11:33N 51°20' E 004°21'0 0.0
2015-Apr-22 10:33N 51°20' E 004°21'0 0.0
2015-Apr-22 09:33N 51°20' E 004°21'0 0.0
2015-Apr-22 08:22N 51°20' E 004°21'0 0.0
2015-Apr-22 07:25N 51°20' E 004°21'0 0.0
2015-Apr-22 06:19N 51°20' E 004°21'0 0.0
2015-Apr-22 05:28N 51°20' E 004°21'0 0.0
2015-Apr-22 04:31N 51°20' E 004°21'0 0.0
2015-Apr-22 03:22N 51°20' E 004°21'0 0.0
2015-Apr-22 02:28N 51°20' E 004°21'0 0.0
2015-Apr-22 01:31N 51°20' E 004°21'0 0.0
2015-Apr-22 00:31N 51°20' E 004°21'2 1.7
2015-Apr-21 23:34N 51°20' E 004°18'1 0.8
2015-Apr-21 22:34N 51°21' E 004°17'2 1.9
2015-Apr-21 21:33N 51°21' E 004°14'8 8.4
2015-Apr-21 20:34N 51°25' E 004°02'1010.2
2015-Apr-21 19:33N 51°22' E 003°46'9 9.1
2015-Apr-21 18:33N 51°25' E 003°33'9 9.3
2015-Apr-21 17:33N 51°24' E 003°18'1111.2
2015-Apr-21 16:33N 51°28' E 003°02'1414.3
2015-Apr-21 15:33N 51°41' E 003°11'7 6.9
2015-Apr-21 14:32N 51°48' E 003°13'3 3.1
2015-Apr-21 13:34N 51°50' E 003°16'1716.9
2015-Apr-21 12:33N 52°07' E 003°21'1817.8
2015-Apr-21 11:33N 52°25' E 003°26'1817.7
2015-Apr-21 10:33N 52°41' E 003°35'1818.0
2015-Apr-21 09:33N 52°55' E 003°55'1717.0
2015-Apr-21 08:32N 53°06' E 004°17'1515.4
2015-Apr-21 07:33N 53°19' E 004°30'1615.7
2015-Apr-21 06:34N 53°34' E 004°38'1616.1
2015-Apr-21 05:34N 53°49' E 004°47'1716.7
2015-Apr-21 04:33N 54°05' E 004°56'1717.1
2015-Apr-21 03:32N 54°21' E 005°09'1716.9
2015-Apr-21 02:33N 54°36' E 005°22'1716.8
2015-Apr-21 01:31N 54°50' E 005°39'1616.6
2015-Apr-21 00:32N 55°05' E 005°52'1616.4
2015-Apr-20 23:33N 55°18' E 006°09'  
Track history (hours):
 
Tides and Currents Weather Stations Pressure Air Temp Water Temp Dewpoint Dewpoint Depression Visibility Wind Speed Wind Dir Waves Ship Positions

MSC Jordan

Last reported at 2015-Apr-30 23:12 UTC. Time now 2015-May-22 23:42 UTC.
Position N 28°08' W 015°25'.
Warning: this ship's position is 22 days out of date.

Length 237 m; draft 10.6 m.

Type: Ship. MMSI: 355194000.

Date/timePositionNaut miles runAvg speedWind from/ knotsBaromVisibWave heightAir tempDewpointWater temp
2015-Apr-30 23:12N 28°08' W 015°25'0 0.0
2015-Apr-30 19:27N 28°08' W 015°25'  
2015-Apr-26 07:24N 49°44' W 000°57'1517.9
2015-Apr-26 06:33N 49°38' W 000°35'1717.1
2015-Apr-26 05:33N 49°32' W 000°10'1313.1
2015-Apr-26 04:33N 49°27' E 000°09'0 0.3
2015-Apr-26 03:33N 49°28' E 000°09'0 0.0
2015-Apr-26 02:33N 49°28' E 000°09'0 0.0
2015-Apr-26 01:33N 49°28' E 000°09'0 0.0
2015-Apr-26 00:33N 49°28' E 000°09'0 0.0
2015-Apr-25 23:33N 49°28' E 000°09'0 0.0
2015-Apr-25 22:33N 49°28' E 000°09'0 0.0
2015-Apr-25 21:33N 49°28' E 000°09'0 0.0
2015-Apr-25 20:33N 49°28' E 000°09'0 0.0
2015-Apr-25 19:33N 49°28' E 000°09'0 0.0
2015-Apr-25 18:33N 49°28' E 000°09'0 0.0
2015-Apr-25 17:33N 49°28' E 000°09'0 0.0
2015-Apr-25 16:33N 49°28' E 000°09'0 0.0
2015-Apr-25 15:33N 49°28' E 000°09'3 3.2
2015-Apr-25 14:34N 49°29' E 000°04'1010.2
2015-Apr-25 13:33N 49°33' W 000°11'1616.0
2015-Apr-25 12:33N 49°49' W 000°10'4614.6
2015-Apr-25 09:24N 50°32' E 000°16'1517.1
2015-Apr-25 08:33N 50°36' E 000°38'1717.0
2015-Apr-25 07:33N 50°46' E 000°60'1816.0
2015-Apr-25 06:25N 50°58' E 001°22'1314.6
2015-Apr-25 05:33N 51°07' E 001°36'1414.2
2015-Apr-25 04:34N 51°19' E 001°49'1514.6
2015-Apr-25 03:34N 51°33' E 001°47'1716.8
2015-Apr-25 02:34N 51°50' E 001°42'1211.9
2015-Apr-25 01:33N 51°56' E 001°26'5 5.0
2015-Apr-25 00:33N 51°57' E 001°18'0 0.0
2015-Apr-24 23:33N 51°57' E 001°18'0 0.0
2015-Apr-24 22:33N 51°57' E 001°18'0 0.0
2015-Apr-24 21:33N 51°57' E 001°18'0 0.0
2015-Apr-24 20:32N 51°57' E 001°18'0 0.0
2015-Apr-24 19:32N 51°57' E 001°18'0 0.0
2015-Apr-24 18:30N 51°57' E 001°18'0 0.0
2015-Apr-24 17:33N 51°57' E 001°18'0 0.0
2015-Apr-24 16:33N 51°57' E 001°18'0 0.0
2015-Apr-24 15:34N 51°57' E 001°18'0 0.0
2015-Apr-24 14:33N 51°57' E 001°18'0 0.0
2015-Apr-24 13:31N 51°57' E 001°18'0 0.0
2015-Apr-24 12:31N 51°57' E 001°18'0 0.0
2015-Apr-24 11:31N 51°57' E 001°18'0 0.0
2015-Apr-24 10:31N 51°57' E 001°18'0 0.0
2015-Apr-24 09:31N 51°57' E 001°18'0 0.0
2015-Apr-24 08:31N 51°57' E 001°18'0 0.0
2015-Apr-24 06:31N 51°57' E 001°18'0 0.1
2015-Apr-24 05:33N 51°57' E 001°18'7 7.2
2015-Apr-24 04:34N 51°57' E 001°30'9 9.2
2015-Apr-24 03:33N 51°51' E 001°43'4 3.7
2015-Apr-24 02:33N 51°51' E 001°48'5 4.7
2015-Apr-24 01:33N 51°47' E 001°49'1514.9
2015-Apr-24 00:33N 51°32' E 001°51'1615.8
2015-Apr-23 23:34N 51°22' E 002°11'1717.1
2015-Apr-23 22:33N 51°23' E 002°38'1414.4
2015-Apr-23 21:33N 51°25' E 003°01'1817.9
2015-Apr-23 20:34N 51°25' E 003°29'1211.5
2015-Apr-23 19:33N 51°21' E 003°47'1110.8
2015-Apr-23 18:34N 51°22' E 004°04'8 8.5
2015-Apr-23 17:34N 51°21' E 004°17'1 1.5
2015-Apr-23 16:33N 51°19' E 004°19'1 1.1
2015-Apr-23 15:32N 51°20' E 004°21'0 0.0
2015-Apr-23 14:33N 51°20' E 004°21'0 0.0
2015-Apr-23 13:30N 51°20' E 004°21'0 0.0
2015-Apr-23 12:33N 51°20' E 004°21'0 0.0
2015-Apr-23 11:32N 51°20' E 004°21'0 0.0
2015-Apr-23 10:33N 51°20' E 004°21'0 0.0
2015-Apr-23 09:30N 51°20' E 004°21'0 0.0
2015-Apr-23 08:33N 51°20' E 004°21'0 0.0
2015-Apr-23 07:33N 51°20' E 004°21'0 0.0
2015-Apr-23 06:33N 51°20' E 004°21'0 0.0
2015-Apr-23 05:30N 51°20' E 004°21'0 0.0
2015-Apr-23 04:27N 51°20' E 004°21'0 0.0
2015-Apr-23 03:33N 51°20' E 004°21'0 0.0
2015-Apr-23 02:33N 51°20' E 004°21'0 0.0
2015-Apr-23 01:33N 51°20' E 004°21'0 0.0
2015-Apr-23 00:33N 51°20' E 004°21'0 0.0
2015-Apr-22 23:33N 51°20' E 004°21'0 0.0
2015-Apr-22 22:33N 51°20' E 004°21'0 0.0
2015-Apr-22 21:30N 51°20' E 004°21'0 0.0
2015-Apr-22 20:33N 51°20' E 004°21'0 0.0
2015-Apr-22 19:33N 51°20' E 004°21'0 0.0
2015-Apr-22 18:32N 51°20' E 004°21'0 0.0
2015-Apr-22 17:31N 51°20' E 004°21'0 0.0
2015-Apr-22 16:32N 51°20' E 004°21'0 0.0
2015-Apr-22 15:33N 51°20' E 004°21'0 0.0
2015-Apr-22 14:25N 51°20' E 004°21'0 0.0
2015-Apr-22 13:31N 51°20' E 004°21'0 0.0
2015-Apr-22 12:28N 51°20' E 004°21'0 0.0
2015-Apr-22 11:33N 51°20' E 004°21'0 0.0
2015-Apr-22 10:33N 51°20' E 004°21'0 0.0
2015-Apr-22 09:33N 51°20' E 004°21'0 0.0
2015-Apr-22 08:22N 51°20' E 004°21'0 0.0
2015-Apr-22 07:25N 51°20' E 004°21'0 0.0
2015-Apr-22 06:19N 51°20' E 004°21'0 0.0
2015-Apr-22 05:28N 51°20' E 004°21'0 0.0
2015-Apr-22 04:31N 51°20' E 004°21'0 0.0
2015-Apr-22 03:22N 51°20' E 004°21'0 0.0
2015-Apr-22 02:28N 51°20' E 004°21'0 0.0
2015-Apr-22 01:31N 51°20' E 004°21'0 0.0
2015-Apr-22 00:31N 51°20' E 004°21'2 1.7
2015-Apr-21 23:34N 51°20' E 004°18'1 0.8
2015-Apr-21 22:34N 51°21' E 004°17'2 1.9
2015-Apr-21 21:33N 51°21' E 004°14'8 8.4
2015-Apr-21 20:34N 51°25' E 004°02'1010.2
2015-Apr-21 19:33N 51°22' E 003°46'9 9.1
2015-Apr-21 18:33N 51°25' E 003°33'9 9.3
2015-Apr-21 17:33N 51°24' E 003°18'1111.2
2015-Apr-21 16:33N 51°28' E 003°02'1414.3
2015-Apr-21 15:33N 51°41' E 003°11'7 6.9
2015-Apr-21 14:32N 51°48' E 003°13'3 3.1
2015-Apr-21 13:34N 51°50' E 003°16'1716.9
2015-Apr-21 12:33N 52°07' E 003°21'1817.8
2015-Apr-21 11:33N 52°25' E 003°26'1817.7
2015-Apr-21 10:33N 52°41' E 003°35'1818.0
2015-Apr-21 09:33N 52°55' E 003°55'1717.0
2015-Apr-21 08:32N 53°06' E 004°17'1515.4
2015-Apr-21 07:33N 53°19' E 004°30'1615.7
2015-Apr-21 06:34N 53°34' E 004°38'1616.1
2015-Apr-21 05:34N 53°49' E 004°47'1716.7
2015-Apr-21 04:33N 54°05' E 004°56'1717.1
2015-Apr-21 03:32N 54°21' E 005°09'1716.9
2015-Apr-21 02:33N 54°36' E 005°22'1716.8
2015-Apr-21 01:31N 54°50' E 005°39'1616.6
2015-Apr-21 00:32N 55°05' E 005°52'1616.4
2015-Apr-20 23:33N 55°18' E 006°09'  

Dump ship's entire track history